sensor_id;sensor_type;location;lat;lon;timestamp;P1;durP1;ratioP1;P2;durP2;ratioP2
8159;SDS011;27404;52.398;9.646;2022-09-17T00:01:50;4.60;;;1.83;;
8159;SDS011;27404;52.398;9.646;2022-09-17T00:04:16;10.47;;;2.33;;
8159;SDS011;27404;52.398;9.646;2022-09-17T00:06:42;7.77;;;2.10;;
8159;SDS011;27404;52.398;9.646;2022-09-17T00:09:07;9.73;;;2.47;;
8159;SDS011;27404;52.398;9.646;2022-09-17T00:11:34;9.77;;;2.83;;
8159;SDS011;27404;52.398;9.646;2022-09-17T00:14:02;9.67;;;2.57;;
8159;SDS011;27404;52.398;9.646;2022-09-17T00:18:56;11.00;;;2.70;;
8159;SDS011;27404;52.398;9.646;2022-09-17T00:21:22;10.90;;;3.20;;
8159;SDS011;27404;52.398;9.646;2022-09-17T00:23:51;8.53;;;2.50;;
8159;SDS011;27404;52.398;9.646;2022-09-17T00:26:18;21.03;;;4.17;;
8159;SDS011;27404;52.398;9.646;2022-09-17T00:28:43;10.27;;;3.00;;
8159;SDS011;27404;52.398;9.646;2022-09-17T00:31:14;11.50;;;3.17;;
8159;SDS011;27404;52.398;9.646;2022-09-17T00:33:39;10.63;;;2.80;;
8159;SDS011;27404;52.398;9.646;2022-09-17T00:36:05;12.53;;;3.37;;
8159;SDS011;27404;52.398;9.646;2022-09-17T00:38:31;11.47;;;2.50;;
8159;SDS011;27404;52.398;9.646;2022-09-17T00:40:57;10.90;;;2.40;;
8159;SDS011;27404;52.398;9.646;2022-09-17T00:43:39;10.77;;;2.60;;
8159;SDS011;27404;52.398;9.646;2022-09-17T00:48:47;7.60;;;2.17;;
8159;SDS011;27404;52.398;9.646;2022-09-17T00:51:14;10.00;;;2.10;;
8159;SDS011;27404;52.398;9.646;2022-09-17T00:53:44;14.20;;;2.70;;
8159;SDS011;27404;52.398;9.646;2022-09-17T00:56:13;12.70;;;2.63;;
8159;SDS011;27404;52.398;9.646;2022-09-17T00:58:45;9.97;;;2.87;;
8159;SDS011;27404;52.398;9.646;2022-09-17T01:01:10;11.93;;;2.30;;
8159;SDS011;27404;52.398;9.646;2022-09-17T01:03:36;15.87;;;2.13;;
8159;SDS011;27404;52.398;9.646;2022-09-17T01:06:13;13.63;;;1.97;;
8159;SDS011;27404;52.398;9.646;2022-09-17T01:11:44;12.80;;;2.20;;
8159;SDS011;27404;52.398;9.646;2022-09-17T01:25:28;10.40;;;1.80;;
8159;SDS011;27404;52.398;9.646;2022-09-17T01:36:09;7.97;;;2.20;;
8159;SDS011;27404;52.398;9.646;2022-09-17T01:38:48;13.63;;;2.57;;
8159;SDS011;27404;52.398;9.646;2022-09-17T01:44:20;13.10;;;2.23;;
8159;SDS011;27404;52.398;9.646;2022-09-17T01:47:23;11.83;;;2.77;;
8159;SDS011;27404;52.398;9.646;2022-09-17T01:49:51;12.37;;;2.40;;
8159;SDS011;27404;52.398;9.646;2022-09-17T01:52:20;7.53;;;1.97;;
8159;SDS011;27404;52.398;9.646;2022-09-17T01:54:52;9.90;;;2.30;;
8159;SDS011;27404;52.398;9.646;2022-09-17T01:57:37;9.67;;;2.03;;
8159;SDS011;27404;52.398;9.646;2022-09-17T02:00:10;7.47;;;2.10;;
8159;SDS011;27404;52.398;9.646;2022-09-17T02:08:25;16.77;;;3.00;;
8159;SDS011;27404;52.398;9.646;2022-09-17T02:10:59;11.10;;;2.87;;
8159;SDS011;27404;52.398;9.646;2022-09-17T02:16:12;13.23;;;2.30;;
8159;SDS011;27404;52.398;9.646;2022-09-17T02:18:49;13.83;;;2.67;;
8159;SDS011;27404;52.398;9.646;2022-09-17T02:26:33;16.07;;;2.93;;
8159;SDS011;27404;52.398;9.646;2022-09-17T02:29:11;18.57;;;2.80;;
8159;SDS011;27404;52.398;9.646;2022-09-17T02:31:43;12.93;;;2.83;;
8159;SDS011;27404;52.398;9.646;2022-09-17T02:34:09;14.40;;;2.27;;
8159;SDS011;27404;52.398;9.646;2022-09-17T02:36:35;16.87;;;3.40;;
8159;SDS011;27404;52.398;9.646;2022-09-17T02:39:01;12.47;;;2.23;;
8159;SDS011;27404;52.398;9.646;2022-09-17T02:41:35;13.30;;;2.10;;
8159;SDS011;27404;52.398;9.646;2022-09-17T02:49:37;9.87;;;2.10;;
8159;SDS011;27404;52.398;9.646;2022-09-17T02:52:22;15.23;;;2.57;;
8159;SDS011;27404;52.398;9.646;2022-09-17T02:57:41;12.70;;;2.67;;
8159;SDS011;27404;52.398;9.646;2022-09-17T03:00:19;17.17;;;2.53;;
8159;SDS011;27404;52.398;9.646;2022-09-17T03:02:50;19.00;;;2.47;;
8159;SDS011;27404;52.398;9.646;2022-09-17T03:05:20;17.50;;;2.20;;
8159;SDS011;27404;52.398;9.646;2022-09-17T03:07:47;12.97;;;2.47;;
8159;SDS011;27404;52.398;9.646;2022-09-17T03:10:12;15.57;;;3.03;;
8159;SDS011;27404;52.398;9.646;2022-09-17T03:12:38;19.67;;;2.80;;
8159;SDS011;27404;52.398;9.646;2022-09-17T03:15:05;12.90;;;2.37;;
8159;SDS011;27404;52.398;9.646;2022-09-17T03:17:30;14.50;;;2.73;;
8159;SDS011;27404;52.398;9.646;2022-09-17T03:19:56;15.50;;;2.90;;
8159;SDS011;27404;52.398;9.646;2022-09-17T03:22:21;18.57;;;2.80;;
8159;SDS011;27404;52.398;9.646;2022-09-17T03:24:47;13.30;;;2.67;;
8159;SDS011;27404;52.398;9.646;2022-09-17T03:27:12;11.30;;;2.27;;
8159;SDS011;27404;52.398;9.646;2022-09-17T03:29:38;17.13;;;2.53;;
8159;SDS011;27404;52.398;9.646;2022-09-17T03:32:05;14.63;;;2.73;;
8159;SDS011;27404;52.398;9.646;2022-09-17T03:34:30;27.50;;;3.83;;
8159;SDS011;27404;52.398;9.646;2022-09-17T03:36:56;15.30;;;1.87;;
8159;SDS011;27404;52.398;9.646;2022-09-17T03:39:21;19.23;;;2.77;;
8159;SDS011;27404;52.398;9.646;2022-09-17T03:41:47;20.13;;;2.67;;
8159;SDS011;27404;52.398;9.646;2022-09-17T03:44:12;12.60;;;2.67;;
8159;SDS011;27404;52.398;9.646;2022-09-17T03:46:39;13.80;;;2.97;;
8159;SDS011;27404;52.398;9.646;2022-09-17T03:49:05;16.77;;;2.40;;
8159;SDS011;27404;52.398;9.646;2022-09-17T03:51:30;14.37;;;2.33;;
8159;SDS011;27404;52.398;9.646;2022-09-17T03:53:56;16.30;;;2.33;;
8159;SDS011;27404;52.398;9.646;2022-09-17T03:56:21;14.83;;;2.93;;
8159;SDS011;27404;52.398;9.646;2022-09-17T03:58:47;21.17;;;2.60;;
8159;SDS011;27404;52.398;9.646;2022-09-17T04:01:12;13.80;;;2.43;;
8159;SDS011;27404;52.398;9.646;2022-09-17T04:03:38;10.30;;;1.90;;
8159;SDS011;27404;52.398;9.646;2022-09-17T04:06:04;9.23;;;2.00;;
8159;SDS011;27404;52.398;9.646;2022-09-17T04:08:29;11.83;;;1.87;;
8159;SDS011;27404;52.398;9.646;2022-09-17T04:10:55;15.60;;;2.67;;
8159;SDS011;27404;52.398;9.646;2022-09-17T04:13:20;13.93;;;2.23;;
8159;SDS011;27404;52.398;9.646;2022-09-17T04:15:46;9.20;;;1.60;;
8159;SDS011;27404;52.398;9.646;2022-09-17T04:18:12;14.63;;;2.07;;
8159;SDS011;27404;52.398;9.646;2022-09-17T04:20:37;20.70;;;2.33;;
8159;SDS011;27404;52.398;9.646;2022-09-17T04:23:04;12.57;;;2.00;;
8159;SDS011;27404;52.398;9.646;2022-09-17T04:25:31;12.43;;;2.30;;
8159;SDS011;27404;52.398;9.646;2022-09-17T04:27:57;8.60;;;1.97;;
8159;SDS011;27404;52.398;9.646;2022-09-17T04:30:23;15.17;;;2.43;;
8159;SDS011;27404;52.398;9.646;2022-09-17T04:32:48;15.63;;;2.40;;
8159;SDS011;27404;52.398;9.646;2022-09-17T04:35:14;12.87;;;2.63;;
8159;SDS011;27404;52.398;9.646;2022-09-17T04:37:39;17.30;;;2.80;;
8159;SDS011;27404;52.398;9.646;2022-09-17T04:40:05;16.87;;;3.00;;
8159;SDS011;27404;52.398;9.646;2022-09-17T04:42:31;15.10;;;2.40;;
8159;SDS011;27404;52.398;9.646;2022-09-17T04:44:57;12.13;;;2.20;;
8159;SDS011;27404;52.398;9.646;2022-09-17T04:47:23;14.03;;;1.93;;
8159;SDS011;27404;52.398;9.646;2022-09-17T04:49:49;16.60;;;2.97;;
8159;SDS011;27404;52.398;9.646;2022-09-17T04:52:15;12.87;;;2.13;;
8159;SDS011;27404;52.398;9.646;2022-09-17T04:54:40;11.50;;;2.33;;
8159;SDS011;27404;52.398;9.646;2022-09-17T04:57:06;18.00;;;2.30;;
8159;SDS011;27404;52.398;9.646;2022-09-17T04:59:31;14.13;;;2.33;;
8159;SDS011;27404;52.398;9.646;2022-09-17T05:01:56;12.07;;;1.97;;
8159;SDS011;27404;52.398;9.646;2022-09-17T05:04:22;18.50;;;2.50;;
8159;SDS011;27404;52.398;9.646;2022-09-17T05:06:47;10.07;;;2.17;;
8159;SDS011;27404;52.398;9.646;2022-09-17T05:09:13;13.07;;;2.27;;
8159;SDS011;27404;52.398;9.646;2022-09-17T05:11:39;14.67;;;2.57;;
8159;SDS011;27404;52.398;9.646;2022-09-17T05:14:05;17.47;;;2.60;;
8159;SDS011;27404;52.398;9.646;2022-09-17T05:16:30;11.40;;;2.93;;
8159;SDS011;27404;52.398;9.646;2022-09-17T05:18:56;9.93;;;2.10;;
8159;SDS011;27404;52.398;9.646;2022-09-17T05:21:22;11.83;;;1.87;;
8159;SDS011;27404;52.398;9.646;2022-09-17T05:23:48;14.90;;;2.47;;
8159;SDS011;27404;52.398;9.646;2022-09-17T05:26:13;14.93;;;2.70;;
8159;SDS011;27404;52.398;9.646;2022-09-17T05:28:39;12.23;;;2.10;;
8159;SDS011;27404;52.398;9.646;2022-09-17T05:31:05;16.13;;;2.53;;
8159;SDS011;27404;52.398;9.646;2022-09-17T05:33:31;9.53;;;1.90;;
8159;SDS011;27404;52.398;9.646;2022-09-17T05:35:57;16.20;;;2.07;;
8159;SDS011;27404;52.398;9.646;2022-09-17T05:38:22;13.37;;;2.60;;
8159;SDS011;27404;52.398;9.646;2022-09-17T05:40:48;10.17;;;2.30;;
8159;SDS011;27404;52.398;9.646;2022-09-17T05:43:14;12.27;;;2.10;;
8159;SDS011;27404;52.398;9.646;2022-09-17T05:45:40;9.73;;;2.10;;
8159;SDS011;27404;52.398;9.646;2022-09-17T05:48:06;15.80;;;2.27;;
8159;SDS011;27404;52.398;9.646;2022-09-17T05:50:35;12.67;;;2.40;;
8159;SDS011;27404;52.398;9.646;2022-09-17T05:53:04;13.10;;;2.30;;
8159;SDS011;27404;52.398;9.646;2022-09-17T05:55:31;13.63;;;2.03;;
8159;SDS011;27404;52.398;9.646;2022-09-17T05:57:57;18.67;;;2.87;;
8159;SDS011;27404;52.398;9.646;2022-09-17T06:00:23;15.13;;;2.27;;
8159;SDS011;27404;52.398;9.646;2022-09-17T06:02:57;11.73;;;1.70;;
8159;SDS011;27404;52.398;9.646;2022-09-17T06:05:23;14.83;;;2.17;;
8159;SDS011;27404;52.398;9.646;2022-09-17T06:07:49;13.90;;;2.30;;
8159;SDS011;27404;52.398;9.646;2022-09-17T06:10:15;12.07;;;2.30;;
8159;SDS011;27404;52.398;9.646;2022-09-17T06:12:41;10.50;;;2.07;;
8159;SDS011;27404;52.398;9.646;2022-09-17T06:15:06;13.47;;;1.87;;
8159;SDS011;27404;52.398;9.646;2022-09-17T06:17:33;18.87;;;3.23;;
8159;SDS011;27404;52.398;9.646;2022-09-17T06:19:59;10.40;;;1.57;;
8159;SDS011;27404;52.398;9.646;2022-09-17T06:22:26;11.87;;;2.20;;
8159;SDS011;27404;52.398;9.646;2022-09-17T06:24:51;10.10;;;1.53;;
8159;SDS011;27404;52.398;9.646;2022-09-17T06:27:17;13.87;;;2.60;;
8159;SDS011;27404;52.398;9.646;2022-09-17T06:29:42;10.90;;;1.83;;
8159;SDS011;27404;52.398;9.646;2022-09-17T06:32:08;9.47;;;2.07;;
8159;SDS011;27404;52.398;9.646;2022-09-17T06:34:37;11.13;;;1.80;;
8159;SDS011;27404;52.398;9.646;2022-09-17T06:37:04;10.50;;;1.97;;
8159;SDS011;27404;52.398;9.646;2022-09-17T06:39:30;10.13;;;2.63;;
8159;SDS011;27404;52.398;9.646;2022-09-17T06:41:55;13.97;;;1.90;;
8159;SDS011;27404;52.398;9.646;2022-09-17T06:44:21;11.70;;;2.57;;
8159;SDS011;27404;52.398;9.646;2022-09-17T06:46:49;11.77;;;1.93;;
8159;SDS011;27404;52.398;9.646;2022-09-17T06:49:16;13.07;;;1.70;;
8159;SDS011;27404;52.398;9.646;2022-09-17T06:51:42;17.47;;;2.00;;
8159;SDS011;27404;52.398;9.646;2022-09-17T06:54:08;16.07;;;2.70;;
8159;SDS011;27404;52.398;9.646;2022-09-17T06:56:34;10.10;;;2.00;;
8159;SDS011;27404;52.398;9.646;2022-09-17T06:58:59;11.63;;;2.93;;
8159;SDS011;27404;52.398;9.646;2022-09-17T07:01:25;14.07;;;2.63;;
8159;SDS011;27404;52.398;9.646;2022-09-17T07:03:51;21.43;;;2.13;;
8159;SDS011;27404;52.398;9.646;2022-09-17T07:06:16;16.50;;;3.10;;
8159;SDS011;27404;52.398;9.646;2022-09-17T07:08:42;11.73;;;1.97;;
8159;SDS011;27404;52.398;9.646;2022-09-17T07:11:08;9.17;;;2.00;;
8159;SDS011;27404;52.398;9.646;2022-09-17T07:13:33;10.20;;;1.80;;
8159;SDS011;27404;52.398;9.646;2022-09-17T07:16:00;11.17;;;2.20;;
8159;SDS011;27404;52.398;9.646;2022-09-17T07:18:27;9.67;;;1.80;;
8159;SDS011;27404;52.398;9.646;2022-09-17T07:20:53;14.33;;;2.20;;
8159;SDS011;27404;52.398;9.646;2022-09-17T07:23:21;10.67;;;2.20;;
8159;SDS011;27404;52.398;9.646;2022-09-17T07:25:52;10.07;;;1.87;;
8159;SDS011;27404;52.398;9.646;2022-09-17T07:28:18;21.93;;;1.93;;
8159;SDS011;27404;52.398;9.646;2022-09-17T07:30:44;10.13;;;1.60;;
8159;SDS011;27404;52.398;9.646;2022-09-17T07:33:10;11.43;;;1.60;;
8159;SDS011;27404;52.398;9.646;2022-09-17T07:35:36;14.10;;;1.77;;
8159;SDS011;27404;52.398;9.646;2022-09-17T07:38:01;9.47;;;1.67;;
8159;SDS011;27404;52.398;9.646;2022-09-17T07:40:27;10.43;;;1.70;;
8159;SDS011;27404;52.398;9.646;2022-09-17T07:42:52;9.70;;;1.40;;
8159;SDS011;27404;52.398;9.646;2022-09-17T07:45:22;10.93;;;2.00;;
8159;SDS011;27404;52.398;9.646;2022-09-17T07:47:47;12.00;;;1.83;;
8159;SDS011;27404;52.398;9.646;2022-09-17T07:50:13;13.20;;;2.03;;
8159;SDS011;27404;52.398;9.646;2022-09-17T07:52:44;10.60;;;2.17;;
8159;SDS011;27404;52.398;9.646;2022-09-17T07:55:10;14.63;;;2.50;;
8159;SDS011;27404;52.398;9.646;2022-09-17T07:57:36;11.77;;;2.40;;
8159;SDS011;27404;52.398;9.646;2022-09-17T08:00:02;15.00;;;1.90;;
8159;SDS011;27404;52.398;9.646;2022-09-17T08:02:28;11.10;;;2.20;;
8159;SDS011;27404;52.398;9.646;2022-09-17T08:04:53;12.00;;;2.07;;
8159;SDS011;27404;52.398;9.646;2022-09-17T08:07:19;9.83;;;1.73;;
8159;SDS011;27404;52.398;9.646;2022-09-17T08:09:44;10.50;;;1.90;;
8159;SDS011;27404;52.398;9.646;2022-09-17T08:12:10;12.23;;;1.80;;
8159;SDS011;27404;52.398;9.646;2022-09-17T08:14:35;11.23;;;1.90;;
8159;SDS011;27404;52.398;9.646;2022-09-17T08:17:01;11.47;;;2.17;;
8159;SDS011;27404;52.398;9.646;2022-09-17T08:19:29;14.47;;;3.23;;
8159;SDS011;27404;52.398;9.646;2022-09-17T08:21:56;19.57;;;2.63;;
8159;SDS011;27404;52.398;9.646;2022-09-17T08:24:22;9.50;;;2.67;;
8159;SDS011;27404;52.398;9.646;2022-09-17T08:26:47;9.27;;;1.87;;
8159;SDS011;27404;52.398;9.646;2022-09-17T08:29:13;14.17;;;3.00;;
8159;SDS011;27404;52.398;9.646;2022-09-17T08:31:38;8.63;;;1.47;;
8159;SDS011;27404;52.398;9.646;2022-09-17T08:34:07;9.67;;;1.90;;
8159;SDS011;27404;52.398;9.646;2022-09-17T08:36:33;13.53;;;2.13;;
8159;SDS011;27404;52.398;9.646;2022-09-17T08:38:59;13.27;;;2.20;;
8159;SDS011;27404;52.398;9.646;2022-09-17T08:41:27;11.07;;;2.10;;
8159;SDS011;27404;52.398;9.646;2022-09-17T08:46:45;13.23;;;1.87;;
8159;SDS011;27404;52.398;9.646;2022-09-17T08:55:03;9.03;;;2.37;;
8159;SDS011;27404;52.398;9.646;2022-09-17T09:00:28;9.53;;;1.83;;
8159;SDS011;27404;52.398;9.646;2022-09-17T09:05:54;9.60;;;1.40;;
8159;SDS011;27404;52.398;9.646;2022-09-17T09:10:55;7.90;;;1.57;;
8159;SDS011;27404;52.398;9.646;2022-09-17T09:13:27;14.40;;;1.80;;
8159;SDS011;27404;52.398;9.646;2022-09-17T09:16:01;11.40;;;2.37;;
8159;SDS011;27404;52.398;9.646;2022-09-17T09:18:32;13.00;;;1.50;;
8159;SDS011;27404;52.398;9.646;2022-09-17T09:26:44;12.83;;;1.93;;
8159;SDS011;27404;52.398;9.646;2022-09-17T09:34:41;10.43;;;1.77;;
8159;SDS011;27404;52.398;9.646;2022-09-17T09:37:19;11.47;;;1.90;;
8159;SDS011;27404;52.398;9.646;2022-09-17T09:39:50;7.70;;;1.53;;
8159;SDS011;27404;52.398;9.646;2022-09-17T09:42:33;7.90;;;1.77;;
8159;SDS011;27404;52.398;9.646;2022-09-17T09:45:11;10.90;;;1.83;;
8159;SDS011;27404;52.398;9.646;2022-09-17T09:50:41;12.97;;;2.10;;
8159;SDS011;27404;52.398;9.646;2022-09-17T09:53:38;10.73;;;2.13;;
8159;SDS011;27404;52.398;9.646;2022-09-17T09:58:58;12.13;;;1.57;;
8159;SDS011;27404;52.398;9.646;2022-09-17T10:01:26;7.23;;;1.37;;
8159;SDS011;27404;52.398;9.646;2022-09-17T10:03:54;13.73;;;1.70;;
8159;SDS011;27404;52.398;9.646;2022-09-17T10:06:22;9.10;;;1.50;;
8159;SDS011;27404;52.398;9.646;2022-09-17T10:11:20;7.47;;;1.70;;
8159;SDS011;27404;52.398;9.646;2022-09-17T10:13:48;8.67;;;1.60;;
8159;SDS011;27404;52.398;9.646;2022-09-17T10:18:42;16.63;;;2.63;;
8159;SDS011;27404;52.398;9.646;2022-09-17T10:24:11;10.37;;;2.23;;
8159;SDS011;27404;52.398;9.646;2022-09-17T10:26:50;8.03;;;1.53;;
8159;SDS011;27404;52.398;9.646;2022-09-17T10:29:17;13.03;;;2.13;;
8159;SDS011;27404;52.398;9.646;2022-09-17T10:31:48;8.77;;;1.50;;
8159;SDS011;27404;52.398;9.646;2022-09-17T10:34:28;8.23;;;1.60;;
8159;SDS011;27404;52.398;9.646;2022-09-17T10:36:55;8.10;;;1.60;;
8159;SDS011;27404;52.398;9.646;2022-09-17T10:42:02;8.97;;;1.37;;
8159;SDS011;27404;52.398;9.646;2022-09-17T10:44:40;6.73;;;1.80;;
8159;SDS011;27404;52.398;9.646;2022-09-17T10:47:25;9.47;;;1.53;;
8159;SDS011;27404;52.398;9.646;2022-09-17T10:49:55;6.03;;;1.40;;
8159;SDS011;27404;52.398;9.646;2022-09-17T10:52:57;10.93;;;1.27;;
8159;SDS011;27404;52.398;9.646;2022-09-17T10:58:03;9.40;;;1.70;;
8159;SDS011;27404;52.398;9.646;2022-09-17T11:03:46;7.50;;;1.47;;
8159;SDS011;27404;52.398;9.646;2022-09-17T11:26:31;13.30;;;2.00;;
8159;SDS011;27404;52.398;9.646;2022-09-17T11:37:13;6.93;;;1.53;;
8159;SDS011;27404;52.398;9.646;2022-09-17T11:42:26;7.67;;;1.23;;
8159;SDS011;27404;52.398;9.646;2022-09-17T11:45:05;6.57;;;1.13;;
8159;SDS011;27404;52.398;9.646;2022-09-17T11:47:40;10.00;;;2.07;;
8159;SDS011;27404;52.398;9.646;2022-09-17T11:50:23;11.10;;;1.60;;
8159;SDS011;27404;52.398;9.646;2022-09-17T11:52:58;7.67;;;1.33;;
8159;SDS011;27404;52.398;9.646;2022-09-17T11:58:09;11.17;;;1.60;;
8159;SDS011;27404;52.398;9.646;2022-09-17T12:00:42;7.47;;;1.37;;
8159;SDS011;27404;52.398;9.646;2022-09-17T12:03:23;9.40;;;1.37;;
8159;SDS011;27404;52.398;9.646;2022-09-17T12:05:57;5.10;;;1.23;;
8159;SDS011;27404;52.398;9.646;2022-09-17T12:08:36;7.60;;;1.90;;
8159;SDS011;27404;52.398;9.646;2022-09-17T12:11:19;6.40;;;1.33;;
8159;SDS011;27404;52.398;9.646;2022-09-17T12:13:51;6.47;;;1.50;;
8159;SDS011;27404;52.398;9.646;2022-09-17T12:16:24;8.67;;;1.20;;
8159;SDS011;27404;52.398;9.646;2022-09-17T12:21:52;5.73;;;1.17;;
8159;SDS011;27404;52.398;9.646;2022-09-17T12:24:27;5.67;;;1.33;;
8159;SDS011;27404;52.398;9.646;2022-09-17T12:27:00;5.63;;;1.00;;
8159;SDS011;27404;52.398;9.646;2022-09-17T12:32:50;7.80;;;1.30;;
8159;SDS011;27404;52.398;9.646;2022-09-17T13:00:10;7.00;;;1.00;;
8159;SDS011;27404;52.398;9.646;2022-09-17T13:02:43;2.97;;;1.60;;
8159;SDS011;27404;52.398;9.646;2022-09-17T13:05:20;3.67;;;0.77;;
8159;SDS011;27404;52.398;9.646;2022-09-17T13:16:09;4.50;;;0.90;;
8159;SDS011;27404;52.398;9.646;2022-09-17T13:18:57;4.13;;;0.97;;
8159;SDS011;27404;52.398;9.646;2022-09-17T13:21:31;4.13;;;0.90;;
8159;SDS011;27404;52.398;9.646;2022-09-17T13:24:14;8.37;;;1.40;;
8159;SDS011;27404;52.398;9.646;2022-09-17T13:26:41;4.60;;;1.10;;
8159;SDS011;27404;52.398;9.646;2022-09-17T13:29:09;4.53;;;1.23;;
8159;SDS011;27404;52.398;9.646;2022-09-17T13:34:03;14.07;;;1.53;;
8159;SDS011;27404;52.398;9.646;2022-09-17T13:37:01;6.63;;;1.73;;
8159;SDS011;27404;52.398;9.646;2022-09-17T13:39:44;7.00;;;1.93;;
8159;SDS011;27404;52.398;9.646;2022-09-17T13:44:47;5.03;;;0.80;;
8159;SDS011;27404;52.398;9.646;2022-09-17T13:47:20;5.87;;;1.10;;
8159;SDS011;27404;52.398;9.646;2022-09-17T13:49:51;9.53;;;0.90;;
8159;SDS011;27404;52.398;9.646;2022-09-17T13:52:31;10.33;;;1.50;;
8159;SDS011;27404;52.398;9.646;2022-09-17T13:54:58;3.13;;;0.63;;
8159;SDS011;27404;52.398;9.646;2022-09-17T13:57:23;4.47;;;0.90;;
8159;SDS011;27404;52.398;9.646;2022-09-17T13:59:56;2.27;;;0.77;;
8159;SDS011;27404;52.398;9.646;2022-09-17T14:04:55;3.73;;;0.87;;
8159;SDS011;27404;52.398;9.646;2022-09-17T14:07:49;4.73;;;0.80;;
8159;SDS011;27404;52.398;9.646;2022-09-17T14:17:59;4.20;;;1.00;;
8159;SDS011;27404;52.398;9.646;2022-09-17T14:20:27;5.07;;;1.23;;
8159;SDS011;27404;52.398;9.646;2022-09-17T14:22:57;13.27;;;3.00;;
8159;SDS011;27404;52.398;9.646;2022-09-17T14:26:07;11.80;;;2.23;;
8159;SDS011;27404;52.398;9.646;2022-09-17T14:31:19;3.73;;;1.30;;
8159;SDS011;27404;52.398;9.646;2022-09-17T14:33:50;3.97;;;1.10;;
8159;SDS011;27404;52.398;9.646;2022-09-17T14:36:19;3.27;;;1.20;;
8159;SDS011;27404;52.398;9.646;2022-09-17T14:38:47;6.73;;;1.33;;
8159;SDS011;27404;52.398;9.646;2022-09-17T14:41:21;7.97;;;1.50;;
8159;SDS011;27404;52.398;9.646;2022-09-17T14:43:57;9.53;;;1.70;;
8159;SDS011;27404;52.398;9.646;2022-09-17T14:46:36;7.57;;;1.73;;
8159;SDS011;27404;52.398;9.646;2022-09-17T14:51:52;8.27;;;1.50;;
8159;SDS011;27404;52.398;9.646;2022-09-17T14:54:22;8.17;;;1.37;;
8159;SDS011;27404;52.398;9.646;2022-09-17T14:56:53;3.67;;;1.00;;
8159;SDS011;27404;52.398;9.646;2022-09-17T15:02:32;14.73;;;2.23;;
8159;SDS011;27404;52.398;9.646;2022-09-17T15:05:15;10.30;;;1.50;;
8159;SDS011;27404;52.398;9.646;2022-09-17T15:07:42;8.00;;;2.63;;
8159;SDS011;27404;52.398;9.646;2022-09-17T15:10:12;6.33;;;1.80;;
8159;SDS011;27404;52.398;9.646;2022-09-17T15:12:39;8.03;;;1.30;;
8159;SDS011;27404;52.398;9.646;2022-09-17T15:15:04;4.60;;;1.20;;
8159;SDS011;27404;52.398;9.646;2022-09-17T15:17:35;7.47;;;1.23;;
8159;SDS011;27404;52.398;9.646;2022-09-17T15:20:02;5.00;;;0.90;;
8159;SDS011;27404;52.398;9.646;2022-09-17T15:22:33;5.37;;;0.93;;
8159;SDS011;27404;52.398;9.646;2022-09-17T15:27:32;8.37;;;1.30;;
8159;SDS011;27404;52.398;9.646;2022-09-17T15:30:08;7.07;;;1.40;;
8159;SDS011;27404;52.398;9.646;2022-09-17T15:32:37;5.57;;;1.40;;
8159;SDS011;27404;52.398;9.646;2022-09-17T15:35:29;7.70;;;1.40;;
8159;SDS011;27404;52.398;9.646;2022-09-17T15:37:58;6.50;;;1.80;;
8159;SDS011;27404;52.398;9.646;2022-09-17T15:40:36;6.90;;;1.10;;
8159;SDS011;27404;52.398;9.646;2022-09-17T15:43:15;6.77;;;1.13;;
8159;SDS011;27404;52.398;9.646;2022-09-17T15:45:51;7.37;;;1.73;;
8159;SDS011;27404;52.398;9.646;2022-09-17T15:48:21;4.13;;;1.40;;
8159;SDS011;27404;52.398;9.646;2022-09-17T15:50:54;7.83;;;1.30;;
8159;SDS011;27404;52.398;9.646;2022-09-17T15:53:22;4.80;;;1.17;;
8159;SDS011;27404;52.398;9.646;2022-09-17T15:56:01;4.27;;;1.10;;
8159;SDS011;27404;52.398;9.646;2022-09-17T16:08:43;8.70;;;1.60;;
8159;SDS011;27404;52.398;9.646;2022-09-17T16:11:13;8.57;;;1.17;;
8159;SDS011;27404;52.398;9.646;2022-09-17T16:13:46;6.73;;;3.00;;
8159;SDS011;27404;52.398;9.646;2022-09-17T16:16:13;4.23;;;1.10;;
8159;SDS011;27404;52.398;9.646;2022-09-17T16:18:41;8.10;;;1.70;;
8159;SDS011;27404;52.398;9.646;2022-09-17T16:21:10;6.50;;;1.37;;
8159;SDS011;27404;52.398;9.646;2022-09-17T16:23:36;10.50;;;1.67;;
8159;SDS011;27404;52.398;9.646;2022-09-17T16:26:01;9.30;;;1.67;;
8159;SDS011;27404;52.398;9.646;2022-09-17T16:28:27;8.83;;;1.93;;
8159;SDS011;27404;52.398;9.646;2022-09-17T16:30:54;12.30;;;1.83;;
8159;SDS011;27404;52.398;9.646;2022-09-17T16:33:20;11.47;;;2.13;;
8159;SDS011;27404;52.398;9.646;2022-09-17T16:35:45;7.87;;;1.97;;
8159;SDS011;27404;52.398;9.646;2022-09-17T16:38:11;5.57;;;1.50;;
8159;SDS011;27404;52.398;9.646;2022-09-17T16:40:40;9.60;;;2.10;;
8159;SDS011;27404;52.398;9.646;2022-09-17T16:43:07;7.57;;;2.00;;
8159;SDS011;27404;52.398;9.646;2022-09-17T16:45:33;5.17;;;1.57;;
8159;SDS011;27404;52.398;9.646;2022-09-17T16:47:59;9.07;;;1.90;;
8159;SDS011;27404;52.398;9.646;2022-09-17T16:50:25;4.43;;;1.33;;
8159;SDS011;27404;52.398;9.646;2022-09-17T16:52:51;7.03;;;1.57;;
8159;SDS011;27404;52.398;9.646;2022-09-17T16:55:16;7.17;;;1.50;;
8159;SDS011;27404;52.398;9.646;2022-09-17T16:57:42;5.37;;;1.60;;
8159;SDS011;27404;52.398;9.646;2022-09-17T17:00:09;3.43;;;1.50;;
8159;SDS011;27404;52.398;9.646;2022-09-17T17:02:41;9.47;;;2.13;;
8159;SDS011;27404;52.398;9.646;2022-09-17T17:05:08;9.13;;;2.20;;
8159;SDS011;27404;52.398;9.646;2022-09-17T17:07:37;9.47;;;2.33;;
8159;SDS011;27404;52.398;9.646;2022-09-17T17:10:05;4.63;;;1.87;;
8159;SDS011;27404;52.398;9.646;2022-09-17T17:12:33;6.60;;;3.07;;
8159;SDS011;27404;52.398;9.646;2022-09-17T17:14:59;7.07;;;1.50;;
8159;SDS011;27404;52.398;9.646;2022-09-17T17:17:26;6.57;;;1.43;;
8159;SDS011;27404;52.398;9.646;2022-09-17T17:19:51;7.10;;;1.77;;
8159;SDS011;27404;52.398;9.646;2022-09-17T17:22:18;5.00;;;1.17;;
8159;SDS011;27404;52.398;9.646;2022-09-17T17:24:44;7.57;;;1.80;;
8159;SDS011;27404;52.398;9.646;2022-09-17T17:27:09;9.40;;;1.70;;
8159;SDS011;27404;52.398;9.646;2022-09-17T17:29:35;6.87;;;1.70;;
8159;SDS011;27404;52.398;9.646;2022-09-17T17:32:01;10.57;;;2.10;;
8159;SDS011;27404;52.398;9.646;2022-09-17T17:34:27;9.27;;;1.50;;
8159;SDS011;27404;52.398;9.646;2022-09-17T17:36:53;7.70;;;1.33;;
8159;SDS011;27404;52.398;9.646;2022-09-17T17:39:19;9.57;;;2.03;;
8159;SDS011;27404;52.398;9.646;2022-09-17T17:41:44;12.63;;;1.83;;
8159;SDS011;27404;52.398;9.646;2022-09-17T17:44:09;6.87;;;1.30;;
8159;SDS011;27404;52.398;9.646;2022-09-17T17:46:38;11.37;;;1.63;;
8159;SDS011;27404;52.398;9.646;2022-09-17T17:49:04;8.67;;;1.77;;
8159;SDS011;27404;52.398;9.646;2022-09-17T17:51:30;10.33;;;2.23;;
8159;SDS011;27404;52.398;9.646;2022-09-17T17:53:56;7.83;;;1.40;;
8159;SDS011;27404;52.398;9.646;2022-09-17T17:56:21;12.53;;;1.50;;
8159;SDS011;27404;52.398;9.646;2022-09-17T17:58:47;9.43;;;1.60;;
8159;SDS011;27404;52.398;9.646;2022-09-17T18:01:18;9.60;;;1.80;;
8159;SDS011;27404;52.398;9.646;2022-09-17T18:03:46;10.20;;;1.87;;
8159;SDS011;27404;52.398;9.646;2022-09-17T18:06:11;7.27;;;1.53;;
8159;SDS011;27404;52.398;9.646;2022-09-17T18:08:38;12.77;;;2.13;;
8159;SDS011;27404;52.398;9.646;2022-09-17T18:11:05;10.73;;;2.10;;
8159;SDS011;27404;52.398;9.646;2022-09-17T18:13:37;8.67;;;1.40;;
8159;SDS011;27404;52.398;9.646;2022-09-17T18:16:03;13.17;;;1.70;;
8159;SDS011;27404;52.398;9.646;2022-09-17T18:18:37;7.43;;;1.63;;
8159;SDS011;27404;52.398;9.646;2022-09-17T18:21:07;8.50;;;1.63;;
8159;SDS011;27404;52.398;9.646;2022-09-17T18:23:35;11.37;;;1.87;;
8159;SDS011;27404;52.398;9.646;2022-09-17T18:26:03;8.53;;;2.20;;
8159;SDS011;27404;52.398;9.646;2022-09-17T18:28:30;10.77;;;1.90;;
8159;SDS011;27404;52.398;9.646;2022-09-17T18:31:08;10.73;;;1.80;;
8159;SDS011;27404;52.398;9.646;2022-09-17T18:33:42;11.07;;;2.00;;
8159;SDS011;27404;52.398;9.646;2022-09-17T18:36:08;9.63;;;1.80;;
8159;SDS011;27404;52.398;9.646;2022-09-17T18:38:34;10.73;;;1.83;;